createdAt,value
2022-10-16T00:01:12.136Z,13.98
2022-10-16T00:03:42.628Z,13.97
2022-10-16T00:06:09.836Z,13.95
2022-10-16T00:08:37.157Z,13.92
2022-10-16T00:11:07.204Z,13.92
2022-10-16T00:13:34.755Z,13.93
2022-10-16T00:16:02.523Z,13.93
2022-10-16T00:18:29.787Z,13.92
2022-10-16T00:23:27.970Z,13.90
2022-10-16T00:25:58.256Z,13.89
2022-10-16T00:28:24.917Z,13.89
2022-10-16T00:30:51.663Z,13.88
2022-10-16T00:33:18.214Z,13.86
2022-10-16T00:35:44.935Z,13.85
2022-10-16T00:38:11.476Z,13.85
2022-10-16T00:40:38.111Z,13.85
2022-10-16T00:43:10.909Z,13.83
2022-10-16T00:45:37.493Z,13.83
2022-10-16T00:48:04.058Z,13.82
2022-10-16T00:50:35.134Z,13.79
2022-10-16T00:53:02.745Z,13.76
2022-10-16T00:55:31.243Z,13.75
2022-10-16T00:57:59.036Z,13.72
2022-10-16T01:00:26.715Z,13.71
2022-10-16T01:02:54.126Z,13.69
2022-10-16T01:05:22.076Z,13.66
2022-10-16T01:08:02.750Z,13.66
2022-10-16T01:10:36.543Z,13.65
2022-10-16T01:13:03.181Z,13.64
2022-10-16T01:15:43.932Z,13.62
2022-10-16T01:18:29.691Z,13.59
2022-10-16T01:21:05.230Z,13.57
2022-10-16T01:23:45.306Z,13.54
2022-10-16T01:26:16.643Z,13.51
2022-10-16T01:28:48.630Z,13.47
2022-10-16T01:31:18.318Z,13.45
2022-10-16T01:33:47.373Z,13.43
2022-10-16T01:36:19.540Z,13.44
2022-10-16T01:38:48.704Z,13.41
2022-10-16T01:41:18.260Z,13.40
2022-10-16T01:43:49.193Z,13.41
2022-10-16T01:46:17.896Z,13.37
2022-10-16T01:48:44.456Z,13.34
2022-10-16T01:51:13.204Z,13.30
2022-10-16T01:53:41.070Z,13.32
2022-10-16T01:56:09.597Z,13.30
2022-10-16T01:58:38.999Z,13.30
2022-10-16T02:01:06.018Z,13.29
2022-10-16T02:03:33.374Z,13.31
2022-10-16T02:05:59.954Z,13.32
2022-10-16T02:08:29.705Z,13.33
2022-10-16T02:10:57.176Z,13.32
2022-10-16T02:13:27.601Z,13.31
2022-10-16T02:15:54.202Z,13.29
2022-10-16T02:18:21.631Z,13.30
2022-10-16T02:20:48.119Z,13.30
2022-10-16T02:23:20.767Z,13.32
2022-10-16T02:25:48.469Z,13.35
2022-10-16T02:28:20.704Z,13.37
2022-10-16T02:30:53.426Z,13.42
2022-10-16T02:33:21.915Z,13.41
2022-10-16T02:35:49.416Z,13.28
2022-10-16T02:38:17.167Z,13.05
2022-10-16T02:40:43.936Z,12.90
2022-10-16T02:43:10.748Z,12.80
2022-10-16T02:45:37.421Z,12.72
2022-10-16T02:48:04.092Z,12.68
2022-10-16T02:50:30.648Z,12.66
2022-10-16T02:52:57.154Z,12.68
2022-10-16T02:55:23.717Z,12.82
2022-10-16T02:57:50.224Z,12.97
2022-10-16T03:00:18.215Z,13.08
2022-10-16T03:02:45.024Z,13.18
2022-10-16T03:05:11.930Z,13.24
2022-10-16T03:07:38.505Z,13.27
2022-10-16T03:10:05.379Z,13.32
2022-10-16T03:12:32.071Z,13.34
2022-10-16T03:14:58.672Z,13.38
2022-10-16T03:17:26.306Z,13.40
2022-10-16T03:19:53.309Z,13.40
2022-10-16T03:22:19.822Z,13.37
2022-10-16T03:24:46.331Z,13.33
2022-10-16T03:27:12.837Z,13.29
2022-10-16T03:29:39.363Z,13.26
2022-10-16T03:32:05.891Z,13.25
2022-10-16T03:34:32.713Z,13.27
2022-10-16T03:36:59.264Z,13.27
2022-10-16T03:39:25.883Z,13.23
2022-10-16T03:41:52.474Z,13.21
2022-10-16T03:44:19.038Z,13.20
2022-10-16T03:46:45.556Z,13.18
2022-10-16T03:49:12.214Z,13.17
2022-10-16T03:51:38.818Z,13.16
2022-10-16T03:54:05.378Z,13.20
2022-10-16T03:56:31.878Z,13.19
2022-10-16T03:58:58.491Z,13.18
2022-10-16T04:01:25.668Z,13.15
2022-10-16T04:03:52.243Z,13.13
2022-10-16T04:06:18.842Z,13.10
2022-10-16T04:08:45.839Z,13.04
2022-10-16T04:11:12.361Z,13.03
2022-10-16T04:13:39.156Z,13.01
2022-10-16T04:16:05.879Z,13.04
2022-10-16T04:18:32.422Z,13.04
2022-10-16T04:21:03.043Z,13.01
2022-10-16T04:23:29.562Z,12.99
2022-10-16T04:25:56.411Z,12.94
2022-10-16T04:28:23.007Z,12.90
2022-10-16T04:30:49.595Z,12.88
2022-10-16T04:33:16.128Z,12.85
2022-10-16T04:35:42.707Z,12.83
2022-10-16T04:38:09.396Z,12.83
2022-10-16T04:40:37.688Z,12.83
2022-10-16T04:43:04.652Z,12.83
2022-10-16T04:45:31.178Z,12.82
2022-10-16T04:47:58.401Z,12.79
2022-10-16T04:50:25.028Z,12.81
2022-10-16T04:53:05.026Z,12.81
2022-10-16T04:55:31.563Z,12.81
2022-10-16T04:57:58.122Z,12.81
2022-10-16T05:00:24.871Z,12.80
2022-10-16T05:02:51.637Z,12.80
2022-10-16T05:05:20.345Z,12.80
2022-10-16T05:07:47.631Z,12.79
2022-10-16T05:10:14.332Z,12.78
2022-10-16T05:12:40.883Z,12.80
2022-10-16T05:15:07.779Z,12.82
2022-10-16T05:17:34.288Z,12.81
2022-10-16T05:20:00.842Z,12.81
2022-10-16T05:22:27.374Z,12.82
2022-10-16T05:24:53.937Z,12.85
2022-10-16T05:27:21.346Z,12.86
2022-10-16T05:29:48.434Z,12.89
2022-10-16T05:32:18.765Z,12.93
2022-10-16T05:34:45.895Z,12.94
2022-10-16T05:37:12.828Z,12.97
2022-10-16T05:39:39.604Z,12.99
2022-10-16T05:42:06.586Z,12.99
2022-10-16T05:47:00.768Z,13.01
2022-10-16T05:49:27.298Z,13.02
2022-10-16T05:51:53.814Z,13.04
2022-10-16T05:54:20.349Z,13.01
2022-10-16T05:56:46.879Z,12.96
2022-10-16T05:59:13.417Z,12.92
2022-10-16T06:01:39.958Z,12.91
2022-10-16T06:04:06.513Z,13.05
2022-10-16T06:06:33.508Z,13.35
2022-10-16T06:09:00.846Z,13.43
2022-10-16T06:11:29.470Z,13.40
2022-10-16T06:14:01.122Z,13.52
2022-10-16T06:16:27.694Z,13.69
2022-10-16T06:18:55.043Z,13.93
2022-10-16T06:21:22.522Z,14.00
2022-10-16T06:23:49.248Z,13.91
2022-10-16T06:26:17.653Z,13.83
2022-10-16T06:28:44.263Z,13.77
2022-10-16T06:31:11.458Z,13.73
2022-10-16T06:33:38.488Z,13.75
2022-10-16T06:36:06.462Z,13.77
2022-10-16T06:38:33.475Z,13.82
2022-10-16T06:41:00.046Z,13.87
2022-10-16T06:43:27.089Z,13.92
2022-10-16T06:45:54.154Z,13.99
2022-10-16T06:48:21.065Z,14.02
2022-10-16T06:51:07.361Z,14.07
2022-10-16T06:53:40.044Z,14.10
2022-10-16T06:56:16.825Z,14.10
2022-10-16T06:58:43.922Z,14.10
2022-10-16T07:01:11.679Z,14.16
2022-10-16T07:03:39.286Z,14.19
2022-10-16T07:06:06.665Z,14.21
2022-10-16T07:08:37.447Z,14.28
2022-10-16T07:11:05.760Z,14.35
2022-10-16T07:13:42.162Z,14.37
2022-10-16T07:16:09.715Z,14.44
2022-10-16T07:18:37.637Z,14.53
2022-10-16T07:21:05.301Z,14.65
2022-10-16T07:23:31.840Z,14.66
2022-10-16T07:25:58.373Z,14.65
2022-10-16T07:28:24.933Z,14.62
2022-10-16T07:30:51.487Z,14.65
2022-10-16T07:33:18.105Z,14.69
2022-10-16T07:35:54.700Z,14.71
2022-10-16T07:38:22.250Z,14.73
2022-10-16T07:40:49.452Z,14.70
2022-10-16T07:43:16.126Z,14.68
2022-10-16T07:48:24.454Z,14.64
2022-10-16T07:50:51.239Z,14.61
2022-10-16T07:53:17.808Z,14.60
2022-10-16T07:55:44.478Z,14.62
2022-10-16T07:58:38.016Z,14.63
2022-10-16T08:01:09.071Z,14.64
2022-10-16T08:03:35.785Z,14.64
2022-10-16T08:06:03.139Z,14.70
2022-10-16T08:08:29.735Z,14.75
2022-10-16T08:10:56.355Z,14.79
2022-10-16T08:13:23.029Z,14.84
2022-10-16T08:15:49.575Z,14.89
2022-10-16T08:18:17.118Z,14.92
2022-10-16T08:20:43.868Z,14.96
2022-10-16T08:23:11.795Z,14.99
2022-10-16T08:25:39.201Z,15.01
2022-10-16T08:28:06.788Z,15.06
2022-10-16T08:30:33.768Z,15.13
2022-10-16T08:33:00.504Z,15.22
2022-10-16T08:35:27.077Z,15.28
2022-10-16T08:37:53.675Z,15.33
2022-10-16T08:40:21.630Z,15.38
2022-10-16T08:42:52.038Z,15.39
2022-10-16T08:45:21.394Z,15.37
2022-10-16T08:48:06.816Z,15.41
2022-10-16T08:50:37.351Z,15.50
2022-10-16T08:53:04.887Z,15.55
2022-10-16T08:55:51.930Z,15.61
2022-10-16T08:58:23.506Z,15.67
2022-10-16T09:01:01.260Z,15.70
2022-10-16T09:03:40.042Z,15.76
2022-10-16T09:06:06.603Z,15.78
2022-10-16T09:08:55.755Z,15.76
2022-10-16T09:11:22.266Z,15.83
2022-10-16T09:13:48.778Z,15.86
2022-10-16T09:16:18.716Z,15.91
2022-10-16T09:18:54.491Z,15.88
2022-10-16T09:21:31.797Z,15.89
2022-10-16T09:24:00.599Z,15.83
2022-10-16T09:26:27.398Z,15.83
2022-10-16T09:28:54.400Z,15.82
2022-10-16T09:31:22.090Z,15.80
2022-10-16T09:33:51.455Z,15.83
2022-10-16T09:36:18.012Z,15.86
2022-10-16T09:38:44.573Z,15.84
2022-10-16T09:41:14.139Z,15.88
2022-10-16T09:43:43.022Z,15.88
2022-10-16T09:46:29.790Z,15.90
2022-10-16T09:48:58.112Z,16.02
2022-10-16T09:51:24.612Z,16.21
2022-10-16T09:53:55.492Z,16.40
2022-10-16T09:56:26.520Z,16.47
2022-10-16T09:58:54.250Z,16.67
2022-10-16T10:01:21.840Z,16.97
2022-10-16T10:03:49.520Z,17.22
2022-10-16T10:06:29.948Z,17.39
2022-10-16T10:09:19.872Z,17.30
2022-10-16T10:11:48.948Z,17.27
2022-10-16T10:14:20.981Z,17.28
2022-10-16T10:16:48.439Z,17.31
2022-10-16T10:19:22.631Z,17.30
2022-10-16T10:21:49.867Z,17.23
2022-10-16T10:24:17.600Z,17.17
2022-10-16T10:26:53.402Z,17.19
2022-10-16T10:29:34.764Z,17.16
2022-10-16T10:32:19.978Z,17.13
2022-10-16T10:35:05.192Z,17.18
2022-10-16T10:37:34.881Z,17.24
2022-10-16T10:40:04.513Z,17.24
2022-10-16T10:42:44.915Z,17.21
2022-10-16T10:45:14.248Z,17.12
2022-10-16T10:47:49.214Z,17.08
2022-10-16T10:50:15.735Z,17.07
2022-10-16T10:53:01.003Z,17.08
2022-10-16T10:55:39.771Z,17.14
2022-10-16T11:01:39.319Z,17.25
2022-10-16T11:04:35.123Z,17.43
2022-10-16T11:07:23.922Z,17.59
2022-10-16T11:10:05.980Z,17.64
2022-10-16T11:12:41.287Z,17.62
2022-10-16T11:15:20.109Z,17.76
2022-10-16T11:17:56.799Z,17.82
2022-10-16T11:20:32.937Z,17.92
2022-10-16T11:23:22.237Z,17.94
2022-10-16T11:25:49.909Z,18.15
2022-10-16T11:28:31.746Z,18.69
2022-10-16T11:31:15.151Z,18.87
2022-10-16T11:34:19.660Z,19.21
2022-10-16T11:36:52.757Z,19.52
2022-10-16T11:39:28.166Z,19.73
2022-10-16T11:42:20.531Z,20.13
2022-10-16T11:45:17.019Z,20.31
2022-10-16T11:48:27.096Z,20.52
2022-10-16T11:50:58.044Z,20.90
2022-10-16T11:53:40.147Z,21.40
2022-10-16T11:56:07.609Z,21.83
2022-10-16T11:58:56.663Z,22.09
2022-10-16T12:01:31.296Z,22.12
2022-10-16T12:04:05.781Z,22.02
2022-10-16T12:06:36.942Z,22.04
2022-10-16T12:09:05.002Z,22.19
2022-10-16T12:11:38.473Z,21.93
2022-10-16T12:14:22.739Z,21.77
2022-10-16T12:16:55.668Z,21.59
2022-10-16T12:19:24.382Z,21.53
2022-10-16T12:21:53.362Z,21.62
2022-10-16T12:24:34.658Z,21.55
2022-10-16T12:27:02.687Z,21.11
2022-10-16T12:29:41.122Z,21.00
2022-10-16T12:32:45.699Z,21.43
2022-10-16T12:35:26.480Z,21.67
2022-10-16T12:37:53.562Z,21.62
2022-10-16T12:40:23.270Z,21.71
2022-10-16T12:42:49.931Z,21.80
2022-10-16T12:45:28.894Z,21.83
2022-10-16T12:47:56.794Z,21.77
2022-10-16T12:50:26.217Z,21.80
2022-10-16T12:52:53.033Z,21.74
2022-10-16T12:55:22.738Z,21.81
2022-10-16T12:58:15.766Z,21.68
2022-10-16T13:00:51.999Z,21.62
2022-10-16T13:03:37.513Z,21.41
2022-10-16T13:06:17.969Z,21.18
2022-10-16T13:08:54.980Z,20.97
2022-10-16T13:11:24.561Z,21.07
2022-10-16T13:14:17.089Z,21.23
2022-10-16T13:16:43.665Z,21.24
2022-10-16T13:19:41.416Z,21.20
2022-10-16T13:22:32.465Z,21.25
2022-10-16T13:25:02.064Z,21.42
2022-10-16T13:27:34.826Z,21.55
2022-10-16T13:30:28.097Z,21.55
2022-10-16T13:33:05.240Z,21.52
2022-10-16T13:35:34.515Z,21.63
2022-10-16T13:38:14.766Z,21.60
2022-10-16T13:41:12.400Z,21.69
2022-10-16T13:43:42.745Z,21.81
2022-10-16T13:46:21.382Z,21.72
2022-10-16T13:49:04.527Z,21.60
2022-10-16T13:51:32.522Z,21.68
2022-10-16T13:54:00.109Z,21.76
2022-10-16T13:56:29.790Z,21.70
2022-10-16T13:59:05.040Z,21.53
2022-10-16T14:01:35.934Z,21.39
2022-10-16T14:04:07.030Z,21.47
2022-10-16T14:06:35.198Z,21.42
2022-10-16T14:09:23.132Z,21.20
2022-10-16T14:11:54.052Z,20.98
2022-10-16T14:14:21.379Z,20.92
2022-10-16T14:16:48.581Z,20.87
2022-10-16T14:19:24.201Z,21.06
2022-10-16T14:21:52.304Z,21.05
2022-10-16T14:24:28.404Z,20.93
2022-10-16T14:26:58.359Z,20.99
2022-10-16T14:29:27.508Z,20.95
2022-10-16T14:32:00.119Z,20.99
2022-10-16T14:34:50.674Z,20.87
2022-10-16T14:37:31.787Z,20.75
2022-10-16T14:39:58.751Z,20.74
2022-10-16T14:42:26.576Z,20.72
2022-10-16T14:44:55.185Z,20.74
2022-10-16T14:47:27.916Z,20.66
2022-10-16T14:49:57.093Z,20.62
2022-10-16T14:52:23.785Z,20.39
2022-10-16T14:54:51.315Z,20.27
2022-10-16T14:57:24.507Z,20.19
2022-10-16T14:59:54.339Z,20.09
2022-10-16T15:02:29.860Z,20.01
2022-10-16T15:04:57.489Z,19.89
2022-10-16T15:07:24.919Z,19.78
2022-10-16T15:09:51.951Z,19.68
2022-10-16T15:12:18.574Z,19.64
2022-10-16T15:14:45.238Z,19.57
2022-10-16T15:17:12.488Z,19.54
2022-10-16T15:19:39.646Z,19.51
2022-10-16T15:22:06.435Z,19.48
2022-10-16T15:24:33.425Z,19.44
2022-10-16T15:27:00.088Z,19.42
2022-10-16T15:29:26.774Z,19.38
2022-10-16T15:31:53.477Z,19.34
2022-10-16T15:34:20.693Z,19.26
2022-10-16T15:36:47.893Z,19.26
2022-10-16T15:39:22.181Z,19.23
2022-10-16T15:41:52.297Z,19.16
2022-10-16T15:44:19.240Z,19.10
2022-10-16T15:46:45.944Z,19.08
2022-10-16T15:49:13.137Z,18.97
2022-10-16T15:51:41.528Z,19.00
2022-10-16T15:54:08.877Z,18.97
2022-10-16T15:56:37.801Z,18.91
2022-10-16T15:59:05.323Z,18.87
2022-10-16T16:01:36.924Z,18.84
2022-10-16T16:04:10.875Z,18.73
2022-10-16T16:06:45.739Z,18.63
2022-10-16T16:09:14.691Z,18.59
2022-10-16T16:11:42.308Z,18.56
2022-10-16T16:14:13.875Z,18.46
2022-10-16T16:16:40.555Z,18.44
2022-10-16T16:19:10.767Z,18.43
2022-10-16T16:21:38.589Z,18.41
2022-10-16T16:24:09.178Z,18.39
2022-10-16T16:26:40.286Z,18.32
2022-10-16T16:29:07.622Z,18.34
2022-10-16T16:31:35.729Z,18.23
2022-10-16T16:34:02.539Z,18.14
2022-10-16T16:36:29.182Z,18.18
2022-10-16T16:38:55.838Z,18.13
2022-10-16T16:41:26.213Z,18.08
2022-10-16T16:43:54.304Z,17.99
2022-10-16T16:46:22.511Z,17.99
2022-10-16T16:48:51.331Z,17.98
2022-10-16T16:51:20.676Z,17.87
2022-10-16T16:53:50.221Z,17.92
2022-10-16T16:56:17.810Z,17.85
2022-10-16T16:58:52.414Z,17.86
2022-10-16T17:01:21.342Z,17.86
2022-10-16T17:03:51.388Z,17.83
2022-10-16T17:06:20.860Z,17.80
2022-10-16T17:08:49.174Z,17.75
2022-10-16T17:11:21.442Z,17.71
2022-10-16T17:13:52.449Z,17.64
2022-10-16T17:16:24.903Z,17.65
2022-10-16T17:18:52.458Z,17.56
2022-10-16T17:21:19.378Z,17.57
2022-10-16T17:23:46.082Z,17.51
2022-10-16T17:26:18.047Z,17.48
2022-10-16T17:28:45.374Z,17.43
2022-10-16T17:31:18.106Z,17.30
2022-10-16T17:33:45.600Z,17.28
2022-10-16T17:36:14.689Z,17.24
2022-10-16T17:38:42.613Z,17.19
2022-10-16T17:41:13.908Z,17.17
2022-10-16T17:43:41.510Z,17.09
2022-10-16T17:46:09.526Z,17.09
2022-10-16T17:48:45.576Z,17.11
2022-10-16T17:51:17.899Z,17.12
2022-10-16T17:53:48.764Z,17.09
2022-10-16T17:56:16.944Z,17.00
2022-10-16T17:58:45.448Z,17.04
2022-10-16T18:01:16.597Z,17.04
2022-10-16T18:03:43.322Z,16.98
2022-10-16T18:06:10.080Z,16.97
2022-10-16T18:08:36.885Z,16.92
2022-10-16T18:11:05.056Z,16.93
2022-10-16T18:13:31.902Z,16.89
2022-10-16T18:16:03.946Z,16.84
2022-10-16T18:18:31.140Z,16.82
2022-10-16T18:21:02.551Z,16.72
2022-10-16T18:23:30.259Z,16.77
2022-10-16T18:25:57.374Z,16.70
2022-10-16T18:28:24.199Z,16.66
2022-10-16T18:30:59.244Z,16.67
2022-10-16T18:33:26.636Z,16.63
2022-10-16T18:35:53.791Z,16.66
2022-10-16T18:38:21.134Z,16.63
2022-10-16T18:40:47.975Z,16.49
2022-10-16T18:43:14.692Z,16.55
2022-10-16T18:45:41.558Z,16.54
2022-10-16T18:48:08.269Z,16.48
2022-10-16T18:50:35.044Z,16.46
2022-10-16T18:53:02.182Z,16.41
2022-10-16T18:55:30.954Z,16.48
2022-10-16T18:57:57.900Z,16.49
2022-10-16T19:00:24.576Z,16.53
2022-10-16T19:02:51.363Z,16.50
2022-10-16T19:05:18.127Z,16.50
2022-10-16T19:07:48.435Z,16.49
2022-10-16T19:10:15.448Z,16.45
2022-10-16T19:12:42.170Z,16.39
2022-10-16T19:15:09.390Z,16.28
2022-10-16T19:17:37.891Z,16.35
2022-10-16T19:20:05.905Z,16.33
2022-10-16T19:22:52.664Z,16.31
2022-10-16T19:25:22.315Z,16.26
2022-10-16T19:27:49.979Z,16.27
2022-10-16T19:30:17.261Z,16.23
2022-10-16T19:32:44.976Z,16.16
2022-10-16T19:35:12.801Z,16.05
2022-10-16T19:37:39.809Z,15.87
2022-10-16T19:40:07.380Z,15.88
2022-10-16T19:42:34.180Z,15.95
2022-10-16T19:45:00.828Z,15.96
2022-10-16T19:47:27.482Z,15.91
2022-10-16T19:49:54.525Z,15.87
2022-10-16T19:52:22.320Z,15.60
2022-10-16T19:54:49.028Z,15.41
2022-10-16T19:57:15.687Z,15.21
2022-10-16T19:59:44.896Z,15.01
2022-10-16T20:02:12.528Z,14.82
2022-10-16T20:04:39.248Z,14.75
2022-10-16T20:07:05.936Z,14.84
2022-10-16T20:09:34.237Z,15.06
2022-10-16T20:12:02.353Z,15.33
2022-10-16T20:14:29.139Z,15.56
2022-10-16T20:16:56.051Z,15.70
2022-10-16T20:19:23.005Z,15.84
2022-10-16T20:21:49.674Z,15.92
2022-10-16T20:24:16.333Z,15.93
2022-10-16T20:26:43.009Z,15.96
2022-10-16T20:29:09.775Z,16.00
2022-10-16T20:31:37.104Z,15.95
2022-10-16T20:34:10.213Z,15.93
2022-10-16T20:36:40.666Z,15.69
2022-10-16T20:39:07.731Z,15.33
2022-10-16T20:41:35.867Z,15.01
2022-10-16T20:44:04.076Z,14.78
2022-10-16T20:46:30.807Z,14.59
2022-10-16T20:49:06.060Z,14.40
2022-10-16T20:51:38.446Z,14.26
2022-10-16T20:54:06.398Z,14.28
2022-10-16T20:56:35.798Z,14.27
2022-10-16T20:59:03.911Z,14.22
2022-10-16T21:01:31.847Z,14.18
2022-10-16T21:04:01.949Z,14.14
2022-10-16T21:06:29.571Z,14.07
2022-10-16T21:08:56.315Z,13.99
2022-10-16T21:11:25.585Z,13.98
2022-10-16T21:13:54.286Z,13.90
2022-10-16T21:16:21.286Z,13.85
2022-10-16T21:18:48.755Z,13.86
2022-10-16T21:21:27.263Z,13.84
2022-10-16T21:23:55.899Z,13.78
2022-10-16T21:26:25.937Z,13.79
2022-10-16T21:29:04.323Z,13.88
2022-10-16T21:31:31.484Z,13.89
2022-10-16T21:33:58.421Z,13.96
2022-10-16T21:36:31.383Z,14.02
2022-10-16T21:39:09.875Z,14.02
2022-10-16T21:41:38.277Z,14.00
2022-10-16T21:44:05.789Z,13.98
2022-10-16T21:46:35.629Z,13.82
2022-10-16T21:49:05.833Z,13.70
2022-10-16T21:51:36.771Z,13.72
2022-10-16T21:54:07.295Z,13.74
2022-10-16T21:56:34.428Z,13.75
2022-10-16T21:59:01.805Z,13.68
2022-10-16T22:01:29.864Z,13.52
2022-10-16T22:03:56.974Z,13.39
2022-10-16T22:06:26.977Z,13.42
2022-10-16T22:08:56.787Z,13.34
2022-10-16T22:11:27.070Z,13.24
2022-10-16T22:13:56.664Z,13.17
2022-10-16T22:16:26.351Z,13.14
2022-10-16T22:18:58.050Z,13.09
2022-10-16T22:21:26.649Z,12.99
2022-10-16T22:23:53.863Z,12.98
2022-10-16T22:26:21.256Z,13.00
2022-10-16T22:28:48.350Z,13.05
2022-10-16T22:31:15.909Z,13.08
2022-10-16T22:33:43.076Z,13.13
2022-10-16T22:36:12.251Z,13.13
2022-10-16T22:38:39.040Z,13.17
2022-10-16T22:41:08.348Z,13.23
2022-10-16T22:43:36.919Z,13.32
2022-10-16T22:46:07.546Z,13.34
2022-10-16T22:48:35.470Z,13.32
2022-10-16T22:51:03.223Z,13.31
2022-10-16T22:53:30.433Z,13.30
2022-10-16T22:55:57.159Z,13.32
2022-10-16T22:58:24.250Z,13.29
2022-10-16T23:00:51.659Z,13.28
2022-10-16T23:03:20.765Z,13.31
2022-10-16T23:05:47.702Z,13.30
2022-10-16T23:08:15.241Z,13.33
2022-10-16T23:10:47.290Z,13.33
2022-10-16T23:13:14.025Z,13.32
2022-10-16T23:15:43.098Z,13.34
2022-10-16T23:18:10.919Z,13.39
2022-10-16T23:20:41.370Z,13.40
2022-10-16T23:23:09.320Z,13.42
2022-10-16T23:25:37.014Z,13.56
2022-10-16T23:28:04.634Z,13.63
2022-10-16T23:30:31.365Z,13.71
2022-10-16T23:32:58.041Z,13.84
2022-10-16T23:35:25.083Z,13.91
2022-10-16T23:37:52.007Z,13.89
2022-10-16T23:40:18.983Z,13.90
2022-10-16T23:42:45.895Z,13.84
2022-10-16T23:45:13.195Z,13.62
2022-10-16T23:47:41.847Z,13.43
2022-10-16T23:50:10.137Z,13.16
2022-10-16T23:52:37.566Z,12.81
2022-10-16T23:55:05.339Z,12.66
2022-10-16T23:57:33.776Z,12.58
